Time;durP1;ratioP1;P1;durP2;ratioP2;P2;SDS_P1;SDS_P2;PMS_P1;PMS_P2;Temp;Humidity;BMP_temperature;BMP_pressure;BME280_temperature;BME280_humidity;BME280_pressure;Samples;Min_cycle;Max_cycle;Signal;HPM_P1;HPM_P2
2023/01/30 00:01:29;;;;;;;44.67;16.60;;;;;;;;;;4982231;28;20027;-67
2023/01/30 00:03:55;;;;;;;43.45;16.98;;;;;;;;;;4983394;28;20387;-67
2023/01/30 00:06:20;;;;;;;38.35;14.32;;;;;;;;;;4981682;28;20106;-67
2023/01/30 00:08:46;;;;;;;25.52;10.50;;;;;;;;;;4983252;28;20389;-67
2023/01/30 00:11:12;;;;;;;21.45;8.25;;;;;;;;;;4983471;28;20030;-67
2023/01/30 00:13:37;;;;;;;28.17;12.32;;;;;;;;;;4989967;28;20084;-67
2023/01/30 00:16:03;;;;;;;26.92;8.60;;;;;;;;;;4986658;28;20544;-67
2023/01/30 00:18:28;;;;;;;19.42;8.00;;;;;;;;;;4980191;28;20026;-67
2023/01/30 00:20:56;;;;;;;32.03;13.38;;;;;;;;;;4985119;28;20180;-67
2023/01/30 00:23:21;;;;;;;44.90;17.10;;;;;;;;;;4985148;28;20371;-67
2023/01/30 00:25:46;;;;;;;39.70;16.73;;;;;;;;;;4984865;28;20037;-68
2023/01/30 00:28:12;;;;;;;39.75;16.30;;;;;;;;;;4981259;28;20026;-68
2023/01/30 00:30:37;;;;;;;21.33;9.00;;;;;;;;;;4977801;28;20022;-67
2023/01/30 00:33:02;;;;;;;18.30;7.13;;;;;;;;;;4987778;28;20030;-67
2023/01/30 00:35:27;;;;;;;39.28;13.68;;;;;;;;;;4984183;28;20365;-67
2023/01/30 00:37:56;;;;;;;31.15;12.80;;;;;;;;;;4969956;28;20069;-67
2023/01/30 00:40:21;;;;;;;28.45;12.70;;;;;;;;;;4984622;28;20023;-68
2023/01/30 00:48:14;;;;;;;34.28;13.55;;;;;;;;;;4980446;28;20382;-67
2023/01/30 00:50:42;;;;;;;19.48;9.65;;;;;;;;;;4988910;28;20014;-67
2023/01/30 00:53:10;;;;;;;20.40;8.75;;;;;;;;;;4980940;28;20057;-67
2023/01/30 00:55:36;;;;;;;34.20;13.63;;;;;;;;;;4981724;28;20105;-68
2023/01/30 00:58:01;;;;;;;42.17;15.63;;;;;;;;;;4978791;28;20093;-67
2023/01/30 01:00:26;;;;;;;22.70;9.23;;;;;;;;;;4979604;28;20398;-67
2023/01/30 01:02:51;;;;;;;38.73;14.40;;;;;;;;;;4986765;28;20074;-67
2023/01/30 01:05:16;;;;;;;32.55;13.07;;;;;;;;;;4982263;28;20361;-67
2023/01/30 01:07:41;;;;;;;26.35;10.40;;;;;;;;;;4983371;28;20494;-68
2023/01/30 01:10:07;;;;;;;26.73;10.73;;;;;;;;;;4987800;28;20419;-68
2023/01/30 01:12:32;;;;;;;36.85;13.80;;;;;;;;;;4988028;28;20022;-68
2023/01/30 01:14:57;;;;;;;38.80;15.63;;;;;;;;;;4984307;28;20035;-66
2023/01/30 01:17:23;;;;;;;44.23;15.70;;;;;;;;;;4977080;28;20516;-68
2023/01/30 01:19:48;;;;;;;21.00;8.73;;;;;;;;;;4984312;28;20371;-68
2023/01/30 01:22:13;;;;;;;33.38;13.73;;;;;;;;;;4988802;28;20069;-68
2023/01/30 01:24:38;;;;;;;36.20;12.90;;;;;;;;;;4989689;28;20410;-68
2023/01/30 01:27:03;;;;;;;29.70;11.73;;;;;;;;;;4978533;28;20010;-67
2023/01/30 01:29:28;;;;;;;29.55;14.88;;;;;;;;;;4988268;28;20368;-68
2023/01/30 01:31:56;;;;;;;37.33;14.27;;;;;;;;;;4980250;28;20027;-68
2023/01/30 01:34:21;;;;;;;28.55;11.45;;;;;;;;;;4983078;28;20034;-68
2023/01/30 01:36:47;;;;;;;31.00;11.03;;;;;;;;;;4983982;28;20376;-68
2023/01/30 01:39:12;;;;;;;29.23;11.75;;;;;;;;;;4981139;28;20286;-67
2023/01/30 01:41:38;;;;;;;34.97;15.35;;;;;;;;;;4984289;28;20037;-67
2023/01/30 01:44:03;;;;;;;34.67;13.52;;;;;;;;;;4979371;28;20034;-67
2023/01/30 01:46:30;;;;;;;21.93;9.73;;;;;;;;;;4981356;28;20164;-67
2023/01/30 01:48:57;;;;;;;30.52;12.98;;;;;;;;;;4979059;28;20274;-68
2023/01/30 01:51:28;;;;;;;33.90;13.23;;;;;;;;;;4980519;28;20065;-67
2023/01/30 01:54:06;;;;;;;32.33;13.52;;;;;;;;;;4983906;28;20019;-67
2023/01/30 01:56:33;;;;;;;28.10;11.45;;;;;;;;;;4982411;28;20599;-67
2023/01/30 01:59:02;;;;;;;22.38;9.88;;;;;;;;;;4978760;28;20042;-67
2023/01/30 02:01:27;;;;;;;31.88;13.02;;;;;;;;;;4979232;28;20472;-67
2023/01/30 02:03:54;;;;;;;30.95;13.02;;;;;;;;;;4987347;28;20029;-67
2023/01/30 02:06:21;;;;;;;35.90;14.93;;;;;;;;;;4977727;28;20026;-68
2023/01/30 02:08:48;;;;;;;42.33;15.80;;;;;;;;;;4981825;28;20648;-67
2023/01/30 02:11:32;;;;;;;31.13;10.32;;;;;;;;;;4990147;28;20022;-67
2023/01/30 02:13:59;;;;;;;26.73;11.43;;;;;;;;;;4982852;28;20034;-67
2023/01/30 02:16:24;;;;;;;24.50;10.25;;;;;;;;;;4983372;28;20157;-67
2023/01/30 02:18:49;;;;;;;27.25;11.85;;;;;;;;;;4986618;28;20105;-67
2023/01/30 02:21:32;;;;;;;33.60;12.23;;;;;;;;;;4983652;28;20055;-68
2023/01/30 02:24:06;;;;;;;30.08;14.73;;;;;;;;;;4983699;28;20030;-67
2023/01/30 02:26:41;;;;;;;38.08;14.07;;;;;;;;;;4991291;28;20375;-67
2023/01/30 02:29:35;;;;;;;34.28;14.00;;;;;;;;;;4983711;28;20454;-66
2023/01/30 02:32:03;;;;;;;28.55;12.07;;;;;;;;;;4921135;28;20044;-67
2023/01/30 02:34:34;;;;;;;32.08;13.15;;;;;;;;;;4984082;28;20026;-67
2023/01/30 02:37:20;;;;;;;26.80;10.20;;;;;;;;;;4983092;28;20474;-67
2023/01/30 02:40:01;;;;;;;29.23;14.68;;;;;;;;;;4988480;28;20047;-68
2023/01/30 02:42:34;;;;;;;37.45;15.63;;;;;;;;;;4982947;28;20077;-67
2023/01/30 02:45:03;;;;;;;35.72;15.02;;;;;;;;;;4981491;28;20041;-67
2023/01/30 02:47:35;;;;;;;42.30;15.60;;;;;;;;;;4978215;28;20015;-67
2023/01/30 02:50:06;;;;;;;37.08;16.33;;;;;;;;;;4979885;28;20161;-68
2023/01/30 02:52:32;;;;;;;36.03;11.85;;;;;;;;;;4988083;28;20286;-68
2023/01/30 02:54:57;;;;;;;33.90;15.02;;;;;;;;;;4986526;28;20118;-67
2023/01/30 02:57:23;;;;;;;27.35;8.65;;;;;;;;;;4988068;28;20034;-68
2023/01/30 02:59:52;;;;;;;40.70;15.27;;;;;;;;;;4981427;28;20498;-67
2023/01/30 03:02:17;;;;;;;29.75;10.90;;;;;;;;;;4986299;28;20019;-66
2023/01/30 03:04:57;;;;;;;24.17;10.95;;;;;;;;;;4984516;28;20026;-66
2023/01/30 03:07:35;;;;;;;29.17;13.43;;;;;;;;;;4977617;28;20306;-67
2023/01/30 03:10:19;;;;;;;37.72;16.45;;;;;;;;;;4985610;28;20027;-68
2023/01/30 03:12:50;;;;;;;33.78;11.18;;;;;;;;;;4987270;28;20066;-67
2023/01/30 03:15:19;;;;;;;31.35;14.77;;;;;;;;;;4989496;28;20019;-67
2023/01/30 03:17:45;;;;;;;39.72;16.35;;;;;;;;;;4981538;28;20033;-67
2023/01/30 03:20:10;;;;;;;38.65;12.68;;;;;;;;;;4988512;28;20022;-67
2023/01/30 03:22:35;;;;;;;15.32;7.72;;;;;;;;;;4986500;28;20395;-68
2023/01/30 03:25:01;;;;;;;18.60;7.57;;;;;;;;;;4985991;28;20026;-68
2023/01/30 03:27:26;;;;;;;40.00;16.20;;;;;;;;;;4980066;28;20262;-68
2023/01/30 03:29:51;;;;;;;32.72;13.07;;;;;;;;;;4983799;28;20117;-68
2023/01/30 03:32:16;;;;;;;42.17;15.73;;;;;;;;;;4989903;28;20026;-68
2023/01/30 03:34:42;;;;;;;31.70;12.25;;;;;;;;;;4982444;28;20475;-68
2023/01/30 03:37:07;;;;;;;26.15;9.77;;;;;;;;;;4984880;28;20022;-68
2023/01/30 03:39:32;;;;;;;25.70;9.98;;;;;;;;;;4985622;28;20498;-68
2023/01/30 03:41:58;;;;;;;33.95;13.85;;;;;;;;;;4985965;28;20034;-67
2023/01/30 03:44:23;;;;;;;29.50;12.93;;;;;;;;;;4986966;28;20192;-67
2023/01/30 03:46:48;;;;;;;35.78;15.43;;;;;;;;;;4986703;28;20049;-68
2023/01/30 03:49:13;;;;;;;27.38;12.57;;;;;;;;;;4982496;28;20023;-68
2023/01/30 03:51:38;;;;;;;37.63;18.77;;;;;;;;;;4984078;28;20219;-68
2023/01/30 03:54:04;;;;;;;28.05;10.25;;;;;;;;;;4981810;28;20023;-68
2023/01/30 03:56:29;;;;;;;23.15;10.32;;;;;;;;;;4989495;28;20488;-67
2023/01/30 03:58:55;;;;;;;32.30;14.95;;;;;;;;;;4981774;28;20460;-67
2023/01/30 04:01:20;;;;;;;23.98;11.68;;;;;;;;;;4981665;28;20027;-67
2023/01/30 04:03:45;;;;;;;23.70;11.55;;;;;;;;;;4983143;28;20018;-66
2023/01/30 04:06:10;;;;;;;40.70;16.67;;;;;;;;;;4981746;28;20126;-67
2023/01/30 04:08:36;;;;;;;22.02;9.80;;;;;;;;;;4982751;28;20266;-67
2023/01/30 04:11:01;;;;;;;30.90;12.00;;;;;;;;;;4981929;28;20109;-67
2023/01/30 04:13:26;;;;;;;31.65;12.95;;;;;;;;;;4983286;28;20105;-67
2023/01/30 04:15:51;;;;;;;26.98;11.50;;;;;;;;;;4986847;28;20030;-67
2023/01/30 04:18:16;;;;;;;26.88;11.45;;;;;;;;;;4989135;28;20101;-67
2023/01/30 04:20:42;;;;;;;27.90;10.98;;;;;;;;;;4988674;28;20053;-68
2023/01/30 04:23:07;;;;;;;22.57;9.33;;;;;;;;;;4980057;28;20037;-68
2023/01/30 04:25:32;;;;;;;32.07;11.40;;;;;;;;;;4983106;28;20265;-68
2023/01/30 04:27:57;;;;;;;36.60;14.18;;;;;;;;;;4983255;28;21444;-67
2023/01/30 04:30:22;;;;;;;34.85;15.30;;;;;;;;;;4983649;28;20030;-67
2023/01/30 04:32:48;;;;;;;33.38;16.25;;;;;;;;;;4980063;28;20026;-67
2023/01/30 04:35:13;;;;;;;33.63;15.23;;;;;;;;;;4978556;28;20527;-68
2023/01/30 04:37:38;;;;;;;31.70;14.85;;;;;;;;;;4980017;28;20269;-68
2023/01/30 04:40:04;;;;;;;33.57;15.50;;;;;;;;;;4984336;28;20137;-68
2023/01/30 04:42:29;;;;;;;36.00;15.13;;;;;;;;;;4985810;28;20297;-68
2023/01/30 04:44:54;;;;;;;35.93;16.73;;;;;;;;;;4982112;28;20084;-68
2023/01/30 04:47:19;;;;;;;32.97;16.63;;;;;;;;;;4977753;28;20289;-68
2023/01/30 04:49:44;;;;;;;32.47;12.50;;;;;;;;;;4984510;28;20491;-68
2023/01/30 04:52:09;;;;;;;40.90;16.88;;;;;;;;;;4985029;28;20309;-68
2023/01/30 04:54:35;;;;;;;33.45;15.15;;;;;;;;;;4980692;28;20019;-67
2023/01/30 04:57:00;;;;;;;35.58;14.70;;;;;;;;;;4989473;28;20048;-67
2023/01/30 04:59:25;;;;;;;37.42;14.23;;;;;;;;;;4983251;28;20019;-67
2023/01/30 05:01:50;;;;;;;34.35;16.02;;;;;;;;;;4988555;28;20141;-67
2023/01/30 05:04:16;;;;;;;27.23;12.40;;;;;;;;;;4983508;28;20053;-67
2023/01/30 05:06:41;;;;;;;33.45;14.57;;;;;;;;;;4989436;28;20064;-67
2023/01/30 05:09:06;;;;;;;26.48;11.60;;;;;;;;;;4986663;28;20367;-67
2023/01/30 05:11:31;;;;;;;38.50;16.10;;;;;;;;;;4987629;28;20041;-67
2023/01/30 05:13:57;;;;;;;40.65;14.43;;;;;;;;;;4986377;28;20483;-67
2023/01/30 05:16:23;;;;;;;33.97;13.40;;;;;;;;;;4986548;28;20435;-67
2023/01/30 05:18:48;;;;;;;28.77;14.43;;;;;;;;;;4986491;28;20022;-67
2023/01/30 05:21:18;;;;;;;25.88;13.00;;;;;;;;;;4987868;28;20572;-67
2023/01/30 05:23:43;;;;;;;29.38;10.43;;;;;;;;;;4983654;28;20029;-67
2023/01/30 05:26:10;;;;;;;40.17;24.02;;;;;;;;;;4986323;28;20022;-68
2023/01/30 05:28:35;;;;;;;36.28;17.67;;;;;;;;;;4985319;28;20022;-68
2023/01/30 05:31:04;;;;;;;35.72;14.80;;;;;;;;;;4977676;28;20088;-68
2023/01/30 05:33:29;;;;;;;23.67;10.50;;;;;;;;;;4983637;28;20502;-68
2023/01/30 05:35:54;;;;;;;37.25;14.27;;;;;;;;;;4984044;28;20033;-68
2023/01/30 05:38:21;;;;;;;35.28;14.65;;;;;;;;;;4986904;28;20022;-68
2023/01/30 05:40:46;;;;;;;37.85;15.68;;;;;;;;;;4987160;28;20181;-68
2023/01/30 05:43:11;;;;;;;32.33;14.70;;;;;;;;;;4986671;28;20514;-68
2023/01/30 05:45:36;;;;;;;26.20;11.55;;;;;;;;;;4990590;28;20285;-68
2023/01/30 05:48:02;;;;;;;34.42;15.35;;;;;;;;;;4987206;28;20023;-68
2023/01/30 05:50:28;;;;;;;27.58;13.95;;;;;;;;;;4982477;28;20491;-67
2023/01/30 05:52:53;;;;;;;36.70;17.67;;;;;;;;;;4990098;28;20077;-68
2023/01/30 05:55:18;;;;;;;35.65;15.48;;;;;;;;;;4996082;28;20130;-68
2023/01/30 05:57:43;;;;;;;24.63;9.67;;;;;;;;;;4982221;28;20077;-68
2023/01/30 06:00:09;;;;;;;25.33;12.87;;;;;;;;;;4985906;28;20354;-68
2023/01/30 06:02:34;;;;;;;27.85;11.60;;;;;;;;;;4986819;28;20376;-68
2023/01/30 06:05:00;;;;;;;33.65;17.20;;;;;;;;;;4983686;28;20023;-68
2023/01/30 06:07:25;;;;;;;33.47;16.73;;;;;;;;;;4987390;28;20434;-68
2023/01/30 06:09:50;;;;;;;37.00;16.20;;;;;;;;;;4986709;28;20029;-68
2023/01/30 06:12:15;;;;;;;36.00;13.07;;;;;;;;;;4984869;28;20737;-68
2023/01/30 06:14:40;;;;;;;29.63;12.73;;;;;;;;;;4983128;28;20284;-67
2023/01/30 06:17:05;;;;;;;29.65;13.95;;;;;;;;;;4986217;28;20030;-66
2023/01/30 06:19:31;;;;;;;39.27;13.90;;;;;;;;;;4981257;28;20443;-69
2023/01/30 06:21:56;;;;;;;33.35;14.48;;;;;;;;;;4990141;28;20310;-68
2023/01/30 06:24:21;;;;;;;36.60;17.05;;;;;;;;;;4984219;28;20110;-68
2023/01/30 06:26:46;;;;;;;31.75;14.77;;;;;;;;;;4983374;28;20018;-68
2023/01/30 06:29:12;;;;;;;41.88;18.23;;;;;;;;;;4986064;28;20015;-69
2023/01/30 06:31:37;;;;;;;40.95;16.13;;;;;;;;;;4988877;28;20023;-68
2023/01/30 06:34:02;;;;;;;44.88;19.80;;;;;;;;;;4984931;28;20022;-68
2023/01/30 06:36:27;;;;;;;41.85;19.08;;;;;;;;;;4987943;28;20025;-68
2023/01/30 06:38:53;;;;;;;37.58;17.92;;;;;;;;;;4986721;28;20054;-68
2023/01/30 06:41:18;;;;;;;19.55;8.80;;;;;;;;;;4985847;28;20050;-68
2023/01/30 06:43:43;;;;;;;39.42;18.13;;;;;;;;;;4985926;28;20770;-68
2023/01/30 06:46:08;;;;;;;32.67;15.73;;;;;;;;;;4985948;28;20021;-68
2023/01/30 06:48:33;;;;;;;33.15;15.50;;;;;;;;;;4991327;28;20085;-69
2023/01/30 06:50:59;;;;;;;32.65;13.85;;;;;;;;;;4985241;28;20027;-68
2023/01/30 06:53:29;;;;;;;29.70;15.35;;;;;;;;;;4987746;28;20471;-69
2023/01/30 06:55:54;;;;;;;38.28;17.67;;;;;;;;;;4982441;28;20026;-68
2023/01/30 06:58:20;;;;;;;29.85;13.15;;;;;;;;;;4982793;28;20092;-68
2023/01/30 07:00:45;;;;;;;39.78;18.27;;;;;;;;;;4980030;28;20085;-68
2023/01/30 07:03:12;;;;;;;37.10;18.77;;;;;;;;;;4982988;28;20069;-68
2023/01/30 07:05:38;;;;;;;32.65;16.02;;;;;;;;;;4985065;28;20011;-68
2023/01/30 07:08:03;;;;;;;45.40;19.77;;;;;;;;;;4988733;28;20046;-68
2023/01/30 07:10:31;;;;;;;32.60;15.35;;;;;;;;;;4987125;28;20073;-68
2023/01/30 07:12:56;;;;;;;33.15;14.25;;;;;;;;;;4991481;28;20015;-69
2023/01/30 07:15:21;;;;;;;37.38;14.45;;;;;;;;;;4984982;28;20034;-68
2023/01/30 07:17:46;;;;;;;25.35;13.07;;;;;;;;;;4986114;28;20553;-68
2023/01/30 07:20:12;;;;;;;24.25;13.48;;;;;;;;;;4989943;28;20530;-69
2023/01/30 07:22:37;;;;;;;23.17;11.52;;;;;;;;;;4988618;28;20072;-68
2023/01/30 07:25:02;;;;;;;27.85;11.95;;;;;;;;;;4980241;28;20019;-69
2023/01/30 07:27:27;;;;;;;30.27;13.55;;;;;;;;;;4986510;28;20023;-69
2023/01/30 07:29:52;;;;;;;27.60;11.27;;;;;;;;;;4988165;28;20015;-69
2023/01/30 07:32:18;;;;;;;22.23;12.07;;;;;;;;;;4979599;28;20498;-70
2023/01/30 07:34:44;;;;;;;26.67;11.70;;;;;;;;;;4990273;28;20026;-69
2023/01/30 07:37:09;;;;;;;25.42;12.00;;;;;;;;;;4981257;28;20015;-70
2023/01/30 07:39:34;;;;;;;27.40;11.27;;;;;;;;;;4984205;28;20023;-70
2023/01/30 07:42:00;;;;;;;27.13;11.18;;;;;;;;;;4984658;28;20026;-69
2023/01/30 07:44:25;;;;;;;22.40;10.63;;;;;;;;;;4982400;28;20041;-69
2023/01/30 07:46:51;;;;;;;21.50;11.57;;;;;;;;;;4985899;28;20022;-69
2023/01/30 07:49:16;;;;;;;31.83;13.70;;;;;;;;;;4985863;28;20146;-68
2023/01/30 07:51:41;;;;;;;26.20;12.07;;;;;;;;;;4984227;28;20026;-69
2023/01/30 07:54:06;;;;;;;19.30;9.35;;;;;;;;;;4985915;28;20014;-70
2023/01/30 07:56:31;;;;;;;26.20;11.70;;;;;;;;;;4986234;28;20021;-69
2023/01/30 07:58:56;;;;;;;31.63;11.50;;;;;;;;;;4962582;28;20359;-70
2023/01/30 08:01:22;;;;;;;26.65;11.65;;;;;;;;;;4982430;28;20381;-69
2023/01/30 08:03:48;;;;;;;25.15;10.75;;;;;;;;;;4983303;28;20053;-70
2023/01/30 08:06:13;;;;;;;24.98;15.45;;;;;;;;;;4981385;28;20014;-71
2023/01/30 08:08:39;;;;;;;24.92;13.02;;;;;;;;;;4985729;28;20018;-69
2023/01/30 08:11:04;;;;;;;26.60;11.85;;;;;;;;;;4986473;28;20027;-69
2023/01/30 08:13:29;;;;;;;24.58;11.57;;;;;;;;;;4980622;28;20130;-69
2023/01/30 08:15:57;;;;;;;31.30;14.60;;;;;;;;;;4982283;28;20083;-69
2023/01/30 08:18:23;;;;;;;39.60;13.75;;;;;;;;;;4980242;28;20027;-69
2023/01/30 08:20:48;;;;;;;25.07;13.47;;;;;;;;;;4984752;28;20030;-69
2023/01/30 08:23:13;;;;;;;29.30;12.90;;;;;;;;;;4987334;28;20371;-70
2023/01/30 08:25:38;;;;;;;25.80;12.90;;;;;;;;;;4987028;28;20018;-71
2023/01/30 08:28:03;;;;;;;28.33;12.25;;;;;;;;;;4977699;28;20026;-68
2023/01/30 08:30:29;;;;;;;29.92;11.75;;;;;;;;;;4981233;28;20029;-69
2023/01/30 08:32:54;;;;;;;29.25;16.20;;;;;;;;;;4986577;28;20027;-69
2023/01/30 08:35:19;;;;;;;34.88;14.82;;;;;;;;;;4986662;28;20026;-70
2023/01/30 08:37:45;;;;;;;26.33;16.30;;;;;;;;;;4983335;28;20031;-69
2023/01/30 08:40:10;;;;;;;25.90;12.70;;;;;;;;;;4982878;28;20278;-69
2023/01/30 08:42:35;;;;;;;27.10;13.07;;;;;;;;;;4981926;28;20538;-69
2023/01/30 08:45:00;;;;;;;35.20;13.10;;;;;;;;;;4985005;28;20026;-69
2023/01/30 08:47:25;;;;;;;30.45;14.52;;;;;;;;;;4974495;28;20281;-69
2023/01/30 08:49:51;;;;;;;28.40;13.67;;;;;;;;;;4977708;28;20023;-69
2023/01/30 08:52:17;;;;;;;26.10;12.15;;;;;;;;;;4978730;28;20274;-69
2023/01/30 08:54:42;;;;;;;21.02;11.48;;;;;;;;;;4981198;28;20022;-69
2023/01/30 08:57:07;;;;;;;22.43;12.47;;;;;;;;;;4983938;28;20022;-69
2023/01/30 08:59:32;;;;;;;20.38;10.55;;;;;;;;;;4981912;28;20277;-68
2023/01/30 09:01:58;;;;;;;21.07;9.97;;;;;;;;;;4984065;28;20034;-69
2023/01/30 09:04:25;;;;;;;26.13;10.93;;;;;;;;;;4982174;28;20289;-68
2023/01/30 09:06:50;;;;;;;21.08;10.20;;;;;;;;;;4981021;28;20019;-69
2023/01/30 09:09:15;;;;;;;22.80;10.53;;;;;;;;;;4979954;28;20018;-69
2023/01/30 09:11:40;;;;;;;24.35;13.57;;;;;;;;;;4982312;28;20262;-68
2023/01/30 09:14:06;;;;;;;34.17;11.05;;;;;;;;;;4988873;28;20049;-69
2023/01/30 09:16:31;;;;;;;31.48;11.52;;;;;;;;;;4976172;28;20023;-68
2023/01/30 09:18:56;;;;;;;29.00;10.20;;;;;;;;;;4981754;28;20054;-68
2023/01/30 09:21:21;;;;;;;19.33;8.17;;;;;;;;;;4980785;28;20014;-69
2023/01/30 09:23:46;;;;;;;19.92;8.45;;;;;;;;;;4984797;28;21291;-69
2023/01/30 09:26:12;;;;;;;26.43;8.63;;;;;;;;;;4984747;28;20019;-69
2023/01/30 09:28:37;;;;;;;20.58;7.63;;;;;;;;;;4980605;28;20455;-68
2023/01/30 09:31:02;;;;;;;24.92;5.57;;;;;;;;;;4984769;28;20025;-69
2023/01/30 09:33:27;;;;;;;20.58;7.28;;;;;;;;;;4981677;28;20109;-69
2023/01/30 09:35:53;;;;;;;22.08;5.50;;;;;;;;;;4968966;28;20029;-68
2023/01/30 09:38:18;;;;;;;30.42;5.30;;;;;;;;;;4983802;28;20055;-69
2023/01/30 09:40:46;;;;;;;20.63;5.50;;;;;;;;;;4984022;28;20065;-68
2023/01/30 09:43:12;;;;;;;20.40;5.30;;;;;;;;;;4981851;28;20022;-69
2023/01/30 09:45:43;;;;;;;21.25;4.28;;;;;;;;;;4981607;28;20049;-69
2023/01/30 09:48:13;;;;;;;22.42;5.97;;;;;;;;;;4987749;28;20468;-69
2023/01/30 09:50:38;;;;;;;23.70;5.10;;;;;;;;;;4982500;28;20080;-69
2023/01/30 09:53:06;;;;;;;24.45;4.35;;;;;;;;;;4978199;28;20030;-68
2023/01/30 09:55:32;;;;;;;27.98;5.22;;;;;;;;;;4977295;28;20611;-69
2023/01/30 09:57:58;;;;;;;14.30;3.15;;;;;;;;;;4979428;28;20026;-68
2023/01/30 10:00:27;;;;;;;20.27;3.90;;;;;;;;;;4962029;28;20026;-69
2023/01/30 10:03:03;;;;;;;19.52;3.35;;;;;;;;;;4983280;28;20372;-69
2023/01/30 10:05:49;;;;;;;17.98;3.58;;;;;;;;;;4980387;28;20101;-69
2023/01/30 10:08:26;;;;;;;24.67;5.18;;;;;;;;;;4972533;28;20027;-68
2023/01/30 10:10:51;;;;;;;27.15;4.30;;;;;;;;;;4979649;28;20023;-68
2023/01/30 10:13:19;;;;;;;18.33;3.80;;;;;;;;;;4975757;28;20018;-68
2023/01/30 10:16:03;;;;;;;16.25;3.17;;;;;;;;;;4986304;28;20022;-68
2023/01/30 10:18:40;;;;;;;15.10;3.03;;;;;;;;;;4983863;28;20027;-69
2023/01/30 10:21:14;;;;;;;16.80;3.03;;;;;;;;;;4978854;28;20501;-68
2023/01/30 10:23:48;;;;;;;22.58;5.47;;;;;;;;;;4985239;28;20200;-68
2023/01/30 10:26:15;;;;;;;21.25;2.83;;;;;;;;;;4977453;28;20050;-68
2023/01/30 10:28:46;;;;;;;22.98;3.70;;;;;;;;;;4976822;28;20125;-68
2023/01/30 10:31:13;;;;;;;26.67;4.22;;;;;;;;;;4982612;28;20054;-68
2023/01/30 10:33:45;;;;;;;20.08;3.95;;;;;;;;;;4983003;28;20077;-69
2023/01/30 10:36:17;;;;;;;20.55;4.45;;;;;;;;;;4988405;28;20061;-69
2023/01/30 10:38:47;;;;;;;17.20;3.67;;;;;;;;;;4991083;28;20030;-69
2023/01/30 10:41:31;;;;;;;31.70;6.60;;;;;;;;;;4987408;28;20019;-69
2023/01/30 10:44:06;;;;;;;16.40;2.83;;;;;;;;;;4986509;28;20030;-69
2023/01/30 10:46:50;;;;;;;33.67;5.30;;;;;;;;;;4985842;28;20029;-68
2023/01/30 10:49:25;;;;;;;26.25;4.90;;;;;;;;;;4984332;28;20023;-68
2023/01/30 10:51:56;;;;;;;25.35;3.78;;;;;;;;;;4985931;28;20033;-68
2023/01/30 10:54:24;;;;;;;23.85;4.38;;;;;;;;;;4976901;28;20101;-70
2023/01/30 10:56:56;;;;;;;25.35;4.68;;;;;;;;;;4992997;28;20025;-68
2023/01/30 10:59:31;;;;;;;15.68;2.92;;;;;;;;;;4980865;28;20019;-68
2023/01/30 11:02:02;;;;;;;19.67;3.95;;;;;;;;;;4991937;28;20093;-68
2023/01/30 11:04:45;;;;;;;16.27;2.72;;;;;;;;;;4990673;28;20026;-68
2023/01/30 11:07:11;;;;;;;18.52;4.32;;;;;;;;;;4984746;28;20045;-69
2023/01/30 11:09:37;;;;;;;39.70;4.63;;;;;;;;;;4989942;28;20014;-68
2023/01/30 11:12:02;;;;;;;23.25;3.85;;;;;;;;;;4990553;28;20034;-68
2023/01/30 11:14:28;;;;;;;19.48;3.47;;;;;;;;;;4991719;28;20021;-70
2023/01/30 11:16:54;;;;;;;24.00;4.07;;;;;;;;;;4989901;28;20560;-69
2023/01/30 11:19:39;;;;;;;28.42;3.65;;;;;;;;;;4988208;28;20278;-69
2023/01/30 11:22:05;;;;;;;28.95;3.88;;;;;;;;;;4983182;28;20034;-68
2023/01/30 11:24:40;;;;;;;30.83;4.28;;;;;;;;;;4987441;28;20030;-68
2023/01/30 11:27:26;;;;;;;16.23;2.75;;;;;;;;;;4987314;28;20019;-69
2023/01/30 11:30:01;;;;;;;19.38;2.95;;;;;;;;;;4984477;28;20101;-68
2023/01/30 11:32:27;;;;;;;19.40;3.15;;;;;;;;;;4987964;28;20025;-68
2023/01/30 11:35:05;;;;;;;25.45;4.97;;;;;;;;;;4982724;28;20026;-68
2023/01/30 11:37:32;;;;;;;17.27;3.35;;;;;;;;;;4984841;28;20219;-69
2023/01/30 11:39:57;;;;;;;32.22;6.20;;;;;;;;;;4986420;28;20022;-68
2023/01/30 11:42:31;;;;;;;25.80;3.95;;;;;;;;;;4989139;28;20418;-69
2023/01/30 11:44:59;;;;;;;22.80;3.92;;;;;;;;;;4989097;28;20037;-68
2023/01/30 11:47:26;;;;;;;27.10;4.15;;;;;;;;;;4982901;28;20018;-68
2023/01/30 11:49:54;;;;;;;24.60;3.63;;;;;;;;;;4990033;28;20034;-69
2023/01/30 11:52:23;;;;;;;25.40;3.15;;;;;;;;;;4988166;28;20029;-69
2023/01/30 11:54:49;;;;;;;23.75;3.45;;;;;;;;;;4989418;28;20065;-68
2023/01/30 11:57:16;;;;;;;24.80;3.42;;;;;;;;;;4989151;28;20065;-69
2023/01/30 11:59:46;;;;;;;23.75;4.53;;;;;;;;;;4987659;28;20037;-68
2023/01/30 12:02:17;;;;;;;26.30;3.40;;;;;;;;;;4991289;28;20037;-69
2023/01/30 12:04:44;;;;;;;15.45;2.63;;;;;;;;;;4972650;28;20399;-68
2023/01/30 12:07:18;;;;;;;19.75;4.18;;;;;;;;;;4984906;28;20015;-68
2023/01/30 12:09:43;;;;;;;22.55;3.70;;;;;;;;;;4982368;28;20042;-67
2023/01/30 12:12:38;;;;;;;23.20;3.08;;;;;;;;;;4990181;28;20053;-68
2023/01/30 12:15:09;;;;;;;21.90;2.88;;;;;;;;;;4976123;28;20042;-68
2023/01/30 12:17:34;;;;;;;20.98;2.30;;;;;;;;;;4981853;28;20030;-68
2023/01/30 12:20:02;;;;;;;30.25;3.90;;;;;;;;;;4990378;28;20149;-68
2023/01/30 12:22:34;;;;;;;31.00;3.50;;;;;;;;;;4981958;28;20336;-68
2023/01/30 12:25:00;;;;;;;23.95;3.42;;;;;;;;;;4988444;28;20075;-68
2023/01/30 12:27:31;;;;;;;17.75;3.15;;;;;;;;;;4990520;28;20490;-68
2023/01/30 12:30:05;;;;;;;30.25;5.18;;;;;;;;;;4984429;28;20022;-68
2023/01/30 12:32:33;;;;;;;22.88;4.78;;;;;;;;;;4983576;28;20030;-68
2023/01/30 12:34:58;;;;;;;19.60;3.83;;;;;;;;;;4975747;28;20076;-68
2023/01/30 12:37:26;;;;;;;32.85;4.38;;;;;;;;;;4983438;28;20427;-67
2023/01/30 12:40:06;;;;;;;25.00;4.45;;;;;;;;;;4988442;28;20050;-68
2023/01/30 12:42:55;;;;;;;23.58;3.38;;;;;;;;;;4986900;28;20096;-68
2023/01/30 12:45:25;;;;;;;19.73;3.72;;;;;;;;;;4981906;28;20281;-67
2023/01/30 12:48:09;;;;;;;18.20;2.97;;;;;;;;;;4985997;28;20487;-68
2023/01/30 12:50:37;;;;;;;27.88;5.63;;;;;;;;;;4978745;28;20026;-67
2023/01/30 12:53:19;;;;;;;22.55;3.40;;;;;;;;;;4982612;28;20022;-68
2023/01/30 12:55:52;;;;;;;24.27;3.60;;;;;;;;;;4986005;28;20083;-67
2023/01/30 12:58:47;;;;;;;20.52;3.05;;;;;;;;;;4989415;28;20014;-68
2023/01/30 13:01:12;;;;;;;23.90;3.78;;;;;;;;;;4967007;28;20066;-67
2023/01/30 13:03:44;;;;;;;15.88;3.15;;;;;;;;;;4981972;28;20057;-67
2023/01/30 13:06:15;;;;;;;28.73;3.33;;;;;;;;;;4988946;28;20245;-67
2023/01/30 13:08:43;;;;;;;23.05;2.83;;;;;;;;;;4988906;28;20102;-67
2023/01/30 13:11:08;;;;;;;16.38;4.10;;;;;;;;;;4986227;28;20011;-68
2023/01/30 13:13:41;;;;;;;16.85;3.25;;;;;;;;;;4984662;28;20026;-67
2023/01/30 13:16:19;;;;;;;22.90;3.50;;;;;;;;;;4975773;28;20802;-67
2023/01/30 13:18:51;;;;;;;24.92;4.10;;;;;;;;;;4987635;28;20088;-68
2023/01/30 13:21:24;;;;;;;27.35;4.53;;;;;;;;;;4988625;28;20026;-68
2023/01/30 13:24:08;;;;;;;24.27;3.75;;;;;;;;;;4985012;28;20019;-68
2023/01/30 13:26:35;;;;;;;23.35;4.15;;;;;;;;;;4988906;28;20018;-68
2023/01/30 13:29:26;;;;;;;31.20;5.97;;;;;;;;;;4987344;28;20078;-68
2023/01/30 13:31:53;;;;;;;18.50;3.15;;;;;;;;;;4958369;28;20447;-68
2023/01/30 13:34:29;;;;;;;23.90;2.90;;;;;;;;;;4978014;28;20014;-68
2023/01/30 13:36:58;;;;;;;15.68;3.17;;;;;;;;;;4974332;28;20029;-68
2023/01/30 13:39:23;;;;;;;24.95;3.35;;;;;;;;;;4985815;28;20526;-69
2023/01/30 13:41:52;;;;;;;16.48;2.47;;;;;;;;;;4979383;28;20113;-68
2023/01/30 13:44:21;;;;;;;25.05;3.42;;;;;;;;;;4979205;28;20857;-68
2023/01/30 13:46:47;;;;;;;16.42;3.38;;;;;;;;;;4977741;28;20030;-69
2023/01/30 13:49:14;;;;;;;18.17;2.78;;;;;;;;;;4987771;28;20021;-68
2023/01/30 13:51:46;;;;;;;23.00;3.65;;;;;;;;;;4986160;28;20106;-69
2023/01/30 13:54:26;;;;;;;23.42;4.60;;;;;;;;;;4981427;28;20395;-68
2023/01/30 13:56:54;;;;;;;25.38;3.00;;;;;;;;;;4980154;28;20055;-68
2023/01/30 13:59:19;;;;;;;21.55;2.92;;;;;;;;;;4979218;28;20058;-68
2023/01/30 14:02:02;;;;;;;20.17;2.72;;;;;;;;;;4979558;28;20104;-68
2023/01/30 14:04:39;;;;;;;19.63;4.53;;;;;;;;;;4986348;28;20654;-68
2023/01/30 14:07:08;;;;;;;21.70;3.42;;;;;;;;;;4985605;28;20438;-67
2023/01/30 14:09:34;;;;;;;20.92;3.78;;;;;;;;;;4992207;28;20025;-67
2023/01/30 14:12:00;;;;;;;26.27;4.32;;;;;;;;;;4988074;28;20018;-67
2023/01/30 14:14:32;;;;;;;19.90;3.22;;;;;;;;;;4985181;28;20027;-67
2023/01/30 14:17:11;;;;;;;18.38;4.00;;;;;;;;;;4984384;28;20022;-67
2023/01/30 14:19:36;;;;;;;23.20;4.95;;;;;;;;;;4991859;28;20042;-68
2023/01/30 14:22:04;;;;;;;21.45;3.55;;;;;;;;;;4989872;28;20391;-68
2023/01/30 14:24:30;;;;;;;17.38;2.63;;;;;;;;;;4981654;28;20270;-68
2023/01/30 14:26:55;;;;;;;32.17;4.47;;;;;;;;;;4986961;28;20105;-67
2023/01/30 14:29:36;;;;;;;24.08;3.85;;;;;;;;;;4982070;28;20157;-69
2023/01/30 14:32:01;;;;;;;30.35;4.63;;;;;;;;;;4965358;28;20019;-68
2023/01/30 14:34:39;;;;;;;21.10;3.15;;;;;;;;;;4975401;28;20025;-68